sensor_id;sensor_type;location;lat;lon;timestamp;temperature;humidity
1413;DHT22;701;52.526;13.408;2022-12-07T00:01:18;4.90;38.90
1413;DHT22;701;52.526;13.408;2022-12-07T00:03:46;4.90;38.00
1413;DHT22;701;52.526;13.408;2022-12-07T00:06:14;4.90;37.80
1413;DHT22;701;52.526;13.408;2022-12-07T00:08:40;4.90;38.00
1413;DHT22;701;52.526;13.408;2022-12-07T00:11:11;4.90;38.20
1413;DHT22;701;52.526;13.408;2022-12-07T00:13:38;4.90;38.50
1413;DHT22;701;52.526;13.408;2022-12-07T00:18:31;4.90;37.90
1413;DHT22;701;52.526;13.408;2022-12-07T00:21:05;5.00;37.40
1413;DHT22;701;52.526;13.408;2022-12-07T00:23:31;4.90;36.90
1413;DHT22;701;52.526;13.408;2022-12-07T00:26:06;4.90;36.90
1413;DHT22;701;52.526;13.408;2022-12-07T00:28:33;4.90;36.90
1413;DHT22;701;52.526;13.408;2022-12-07T00:31:04;4.90;36.90
1413;DHT22;701;52.526;13.408;2022-12-07T00:33:32;5.00;36.90
1413;DHT22;701;52.526;13.408;2022-12-07T00:35:59;4.90;35.80
1413;DHT22;701;52.526;13.408;2022-12-07T00:38:27;4.90;35.90
1413;DHT22;701;52.526;13.408;2022-12-07T00:40:59;4.90;35.40
1413;DHT22;701;52.526;13.408;2022-12-07T00:43:25;4.90;35.50
1413;DHT22;701;52.526;13.408;2022-12-07T00:45:51;4.90;34.80
1413;DHT22;701;52.526;13.408;2022-12-07T00:48:17;4.90;35.10
1413;DHT22;701;52.526;13.408;2022-12-07T00:50:43;4.80;35.00
1413;DHT22;701;52.526;13.408;2022-12-07T00:53:08;4.80;33.90
1413;DHT22;701;52.526;13.408;2022-12-07T00:55:37;4.80;33.50
1413;DHT22;701;52.526;13.408;2022-12-07T00:58:03;4.80;32.50
1413;DHT22;701;52.526;13.408;2022-12-07T01:00:29;4.70;32.90
1413;DHT22;701;52.526;13.408;2022-12-07T01:02:55;4.60;33.20
1413;DHT22;701;52.526;13.408;2022-12-07T01:05:21;4.50;33.10
1413;DHT22;701;52.526;13.408;2022-12-07T01:07:47;4.40;33.20
1413;DHT22;701;52.526;13.408;2022-12-07T01:10:14;4.30;32.50
1413;DHT22;701;52.526;13.408;2022-12-07T01:12:40;4.20;32.80
1413;DHT22;701;52.526;13.408;2022-12-07T01:15:07;4.10;32.80
1413;DHT22;701;52.526;13.408;2022-12-07T01:17:33;4.10;33.30
1413;DHT22;701;52.526;13.408;2022-12-07T01:19:59;4.00;33.40
1413;DHT22;701;52.526;13.408;2022-12-07T01:22:25;4.00;34.00
1413;DHT22;701;52.526;13.408;2022-12-07T01:24:51;4.00;33.60
1413;DHT22;701;52.526;13.408;2022-12-07T01:27:16;4.00;33.80
1413;DHT22;701;52.526;13.408;2022-12-07T01:29:42;4.10;33.50
1413;DHT22;701;52.526;13.408;2022-12-07T01:32:08;4.10;33.40
1413;DHT22;701;52.526;13.408;2022-12-07T01:34:33;4.10;33.30
1413;DHT22;701;52.526;13.408;2022-12-07T01:36:59;4.10;33.30
1413;DHT22;701;52.526;13.408;2022-12-07T01:39:25;4.20;33.40
1413;DHT22;701;52.526;13.408;2022-12-07T01:41:51;4.20;32.80
1413;DHT22;701;52.526;13.408;2022-12-07T01:44:29;4.20;32.40
1413;DHT22;701;52.526;13.408;2022-12-07T01:47:01;4.20;32.50
1413;DHT22;701;52.526;13.408;2022-12-07T01:49:29;4.20;32.40
1413;DHT22;701;52.526;13.408;2022-12-07T01:52:21;4.20;32.80
1413;DHT22;701;52.526;13.408;2022-12-07T01:54:51;4.20;32.20
1413;DHT22;701;52.526;13.408;2022-12-07T01:57:19;4.30;32.50
1413;DHT22;701;52.526;13.408;2022-12-07T01:59:46;4.30;32.00
1413;DHT22;701;52.526;13.408;2022-12-07T02:02:25;4.30;31.50
1413;DHT22;701;52.526;13.408;2022-12-07T02:04:53;4.30;31.00
1413;DHT22;701;52.526;13.408;2022-12-07T02:07:20;4.30;31.00
1413;DHT22;701;52.526;13.408;2022-12-07T02:09:47;4.30;31.50
1413;DHT22;701;52.526;13.408;2022-12-07T02:12:12;4.30;31.50
1413;DHT22;701;52.526;13.408;2022-12-07T02:14:38;4.30;32.10
1413;DHT22;701;52.526;13.408;2022-12-07T02:17:23;4.30;31.00
1413;DHT22;701;52.526;13.408;2022-12-07T02:19:58;4.30;30.70
1413;DHT22;701;52.526;13.408;2022-12-07T02:27:46;4.20;30.50
1413;DHT22;701;52.526;13.408;2022-12-07T02:30:17;4.10;30.40
1413;DHT22;701;52.526;13.408;2022-12-07T02:33:07;4.10;30.60
1413;DHT22;701;52.526;13.408;2022-12-07T02:40:51;4.00;31.20
1413;DHT22;701;52.526;13.408;2022-12-07T02:45:51;3.90;31.70
1413;DHT22;701;52.526;13.408;2022-12-07T02:48:19;3.90;31.70
1413;DHT22;701;52.526;13.408;2022-12-07T02:50:53;3.80;32.00
1413;DHT22;701;52.526;13.408;2022-12-07T02:53:37;3.80;32.40
1413;DHT22;701;52.526;13.408;2022-12-07T03:02:03;3.70;33.50
1413;DHT22;701;52.526;13.408;2022-12-07T03:08:29;3.70;34.00
1413;DHT22;701;52.526;13.408;2022-12-07T03:16:00;3.80;35.10
1413;DHT22;701;52.526;13.408;2022-12-07T03:18:30;3.90;34.50
1413;DHT22;701;52.526;13.408;2022-12-07T03:21:00;3.90;35.10
1413;DHT22;701;52.526;13.408;2022-12-07T03:23:27;3.90;34.50
1413;DHT22;701;52.526;13.408;2022-12-07T03:25:58;3.90;34.40
1413;DHT22;701;52.526;13.408;2022-12-07T03:28:30;4.00;34.70
1413;DHT22;701;52.526;13.408;2022-12-07T03:31:05;4.00;34.70
1413;DHT22;701;52.526;13.408;2022-12-07T03:33:52;4.00;34.60
1413;DHT22;701;52.526;13.408;2022-12-07T03:36:54;4.10;34.70
1413;DHT22;701;52.526;13.408;2022-12-07T03:41:50;4.20;34.70
1413;DHT22;701;52.526;13.408;2022-12-07T03:44:17;4.20;34.50
1413;DHT22;701;52.526;13.408;2022-12-07T03:46:57;4.20;34.50
1413;DHT22;701;52.526;13.408;2022-12-07T03:49:50;4.30;34.60
1413;DHT22;701;52.526;13.408;2022-12-07T03:57:14;4.30;34.30
1413;DHT22;701;52.526;13.408;2022-12-07T03:59:40;4.30;34.20
1413;DHT22;701;52.526;13.408;2022-12-07T04:02:08;4.30;34.30
1413;DHT22;701;52.526;13.408;2022-12-07T04:04:36;4.40;34.40
1413;DHT22;701;52.526;13.408;2022-12-07T04:07:02;4.40;34.50
1413;DHT22;701;52.526;13.408;2022-12-07T04:09:28;4.40;34.60
1413;DHT22;701;52.526;13.408;2022-12-07T04:11:54;4.30;34.60
1413;DHT22;701;52.526;13.408;2022-12-07T04:14:19;4.40;35.00
1413;DHT22;701;52.526;13.408;2022-12-07T04:16:54;4.40;35.20
1413;DHT22;701;52.526;13.408;2022-12-07T04:19:27;4.40;35.10
1413;DHT22;701;52.526;13.408;2022-12-07T04:21:55;4.40;35.20
1413;DHT22;701;52.526;13.408;2022-12-07T04:24:21;4.40;35.40
1413;DHT22;701;52.526;13.408;2022-12-07T04:26:47;4.40;35.60
1413;DHT22;701;52.526;13.408;2022-12-07T04:29:14;4.40;35.70
1413;DHT22;701;52.526;13.408;2022-12-07T04:31:40;4.40;35.80
1413;DHT22;701;52.526;13.408;2022-12-07T04:34:06;4.40;36.00
1413;DHT22;701;52.526;13.408;2022-12-07T04:36:33;4.40;36.10
1413;DHT22;701;52.526;13.408;2022-12-07T04:38:59;4.40;36.10
1413;DHT22;701;52.526;13.408;2022-12-07T04:41:25;4.40;36.30
1413;DHT22;701;52.526;13.408;2022-12-07T04:44:00;4.40;36.30
1413;DHT22;701;52.526;13.408;2022-12-07T04:46:28;4.40;36.50
1413;DHT22;701;52.526;13.408;2022-12-07T04:48:55;4.40;36.50
1413;DHT22;701;52.526;13.408;2022-12-07T04:51:23;4.40;36.50
1413;DHT22;701;52.526;13.408;2022-12-07T04:53:50;4.40;36.50
1413;DHT22;701;52.526;13.408;2022-12-07T04:56:17;4.40;37.10
1413;DHT22;701;52.526;13.408;2022-12-07T04:58:44;4.40;36.80
1413;DHT22;701;52.526;13.408;2022-12-07T05:01:10;4.40;36.90
1413;DHT22;701;52.526;13.408;2022-12-07T05:03:37;4.40;37.20
1413;DHT22;701;52.526;13.408;2022-12-07T05:06:03;4.50;37.20
1413;DHT22;701;52.526;13.408;2022-12-07T05:08:29;4.50;37.60
1413;DHT22;701;52.526;13.408;2022-12-07T05:10:55;4.50;37.80
1413;DHT22;701;52.526;13.408;2022-12-07T05:13:20;4.50;37.90
1413;DHT22;701;52.526;13.408;2022-12-07T05:15:47;4.50;38.20
1413;DHT22;701;52.526;13.408;2022-12-07T05:18:13;4.50;38.70
1413;DHT22;701;52.526;13.408;2022-12-07T05:20:40;4.50;38.60
1413;DHT22;701;52.526;13.408;2022-12-07T05:23:06;4.50;38.50
1413;DHT22;701;52.526;13.408;2022-12-07T05:25:31;4.50;38.60
1413;DHT22;701;52.526;13.408;2022-12-07T05:27:57;4.50;38.80
1413;DHT22;701;52.526;13.408;2022-12-07T05:30:24;4.50;38.80
1413;DHT22;701;52.526;13.408;2022-12-07T05:32:50;4.60;39.00
1413;DHT22;701;52.526;13.408;2022-12-07T05:35:16;4.60;39.00
1413;DHT22;701;52.526;13.408;2022-12-07T05:37:42;4.60;38.90
1413;DHT22;701;52.526;13.408;2022-12-07T05:40:09;4.60;39.20
1413;DHT22;701;52.526;13.408;2022-12-07T05:42:35;4.70;39.20
1413;DHT22;701;52.526;13.408;2022-12-07T05:45:00;4.70;39.20
1413;DHT22;701;52.526;13.408;2022-12-07T05:47:26;4.70;40.00
1413;DHT22;701;52.526;13.408;2022-12-07T05:49:52;4.80;39.40
1413;DHT22;701;52.526;13.408;2022-12-07T05:52:17;4.80;39.50
1413;DHT22;701;52.526;13.408;2022-12-07T05:54:43;4.80;39.60
1413;DHT22;701;52.526;13.408;2022-12-07T05:57:09;4.90;39.60
1413;DHT22;701;52.526;13.408;2022-12-07T05:59:36;4.90;39.70
1413;DHT22;701;52.526;13.408;2022-12-07T06:02:04;4.90;39.70
1413;DHT22;701;52.526;13.408;2022-12-07T06:04:33;5.00;39.70
1413;DHT22;701;52.526;13.408;2022-12-07T06:06:59;5.00;39.50
1413;DHT22;701;52.526;13.408;2022-12-07T06:09:26;5.00;39.50
1413;DHT22;701;52.526;13.408;2022-12-07T06:11:53;5.00;39.50
1413;DHT22;701;52.526;13.408;2022-12-07T06:14:37;5.10;39.60
1413;DHT22;701;52.526;13.408;2022-12-07T06:17:03;5.10;39.60
1413;DHT22;701;52.526;13.408;2022-12-07T06:19:29;5.10;39.60
1413;DHT22;701;52.526;13.408;2022-12-07T06:21:55;5.20;39.70
1413;DHT22;701;52.526;13.408;2022-12-07T06:24:21;5.20;39.60
1413;DHT22;701;52.526;13.408;2022-12-07T06:26:48;5.20;39.70
1413;DHT22;701;52.526;13.408;2022-12-07T06:29:14;5.20;39.70
1413;DHT22;701;52.526;13.408;2022-12-07T06:31:40;5.30;39.90
1413;DHT22;701;52.526;13.408;2022-12-07T06:34:10;5.30;39.70
1413;DHT22;701;52.526;13.408;2022-12-07T06:36:37;5.30;40.40
1413;DHT22;701;52.526;13.408;2022-12-07T06:39:03;5.30;39.50
1413;DHT22;701;52.526;13.408;2022-12-07T06:41:29;5.30;39.70
1413;DHT22;701;52.526;13.408;2022-12-07T06:43:55;5.20;39.80
1413;DHT22;701;52.526;13.408;2022-12-07T06:46:21;5.20;40.10
1413;DHT22;701;52.526;13.408;2022-12-07T06:48:47;5.20;40.00
1413;DHT22;701;52.526;13.408;2022-12-07T06:51:13;5.20;40.10
1413;DHT22;701;52.526;13.408;2022-12-07T06:53:39;5.30;40.20
1413;DHT22;701;52.526;13.408;2022-12-07T06:56:05;5.30;40.30
1413;DHT22;701;52.526;13.408;2022-12-07T06:58:30;5.30;40.30
1413;DHT22;701;52.526;13.408;2022-12-07T07:00:56;5.30;40.40
1413;DHT22;701;52.526;13.408;2022-12-07T07:03:22;5.30;40.70
1413;DHT22;701;52.526;13.408;2022-12-07T07:05:48;5.40;40.40
1413;DHT22;701;52.526;13.408;2022-12-07T07:08:14;5.40;40.50
1413;DHT22;701;52.526;13.408;2022-12-07T07:10:40;5.40;40.50
1413;DHT22;701;52.526;13.408;2022-12-07T07:13:06;5.40;40.10
1413;DHT22;701;52.526;13.408;2022-12-07T07:15:33;5.40;40.20
1413;DHT22;701;52.526;13.408;2022-12-07T07:17:59;5.40;40.20
1413;DHT22;701;52.526;13.408;2022-12-07T07:20:25;5.40;40.40
1413;DHT22;701;52.526;13.408;2022-12-07T07:22:54;5.40;40.30
1413;DHT22;701;52.526;13.408;2022-12-07T07:25:32;5.50;40.50
1413;DHT22;701;52.526;13.408;2022-12-07T07:27:58;5.50;40.40
1413;DHT22;701;52.526;13.408;2022-12-07T07:30:24;5.50;40.40
1413;DHT22;701;52.526;13.408;2022-12-07T07:32:50;5.50;40.10
1413;DHT22;701;52.526;13.408;2022-12-07T07:35:16;5.50;39.80
1413;DHT22;701;52.526;13.408;2022-12-07T07:37:42;5.60;39.90
1413;DHT22;701;52.526;13.408;2022-12-07T07:40:08;5.60;39.60
1413;DHT22;701;52.526;13.408;2022-12-07T07:42:34;5.60;39.40
1413;DHT22;701;52.526;13.408;2022-12-07T07:45:00;5.60;39.00
1413;DHT22;701;52.526;13.408;2022-12-07T07:47:26;5.60;38.80
1413;DHT22;701;52.526;13.408;2022-12-07T07:49:52;5.60;38.50
1413;DHT22;701;52.526;13.408;2022-12-07T07:52:18;5.50;38.80
1413;DHT22;701;52.526;13.408;2022-12-07T07:54:43;5.50;38.50
1413;DHT22;701;52.526;13.408;2022-12-07T07:57:09;5.50;38.60
1413;DHT22;701;52.526;13.408;2022-12-07T07:59:35;5.50;38.20
1413;DHT22;701;52.526;13.408;2022-12-07T08:02:00;5.60;38.10
1413;DHT22;701;52.526;13.408;2022-12-07T08:04:26;5.60;38.00
1413;DHT22;701;52.526;13.408;2022-12-07T08:06:52;5.60;37.60
1413;DHT22;701;52.526;13.408;2022-12-07T08:09:17;5.70;37.50
1413;DHT22;701;52.526;13.408;2022-12-07T08:11:43;5.70;37.60
1413;DHT22;701;52.526;13.408;2022-12-07T08:14:11;5.70;37.50
1413;DHT22;701;52.526;13.408;2022-12-07T08:16:37;5.70;36.50
1413;DHT22;701;52.526;13.408;2022-12-07T08:19:05;5.70;36.60
1413;DHT22;701;52.526;13.408;2022-12-07T08:21:30;5.80;36.80
1413;DHT22;701;52.526;13.408;2022-12-07T08:23:57;5.80;36.30
1413;DHT22;701;52.526;13.408;2022-12-07T08:26:23;5.90;35.90
1413;DHT22;701;52.526;13.408;2022-12-07T08:28:49;5.90;35.50
1413;DHT22;701;52.526;13.408;2022-12-07T08:31:17;6.00;35.30
1413;DHT22;701;52.526;13.408;2022-12-07T08:33:45;6.00;35.20
1413;DHT22;701;52.526;13.408;2022-12-07T08:36:12;6.00;33.70
1413;DHT22;701;52.526;13.408;2022-12-07T08:38:39;6.00;33.40
1413;DHT22;701;52.526;13.408;2022-12-07T08:41:05;6.10;33.60
1413;DHT22;701;52.526;13.408;2022-12-07T08:43:31;6.10;32.30
1413;DHT22;701;52.526;13.408;2022-12-07T08:48:41;6.10;31.90
1413;DHT22;701;52.526;13.408;2022-12-07T08:51:08;6.10;30.80
1413;DHT22;701;52.526;13.408;2022-12-07T08:53:34;6.10;29.80
1413;DHT22;701;52.526;13.408;2022-12-07T08:56:00;6.10;29.30
1413;DHT22;701;52.526;13.408;2022-12-07T08:58:26;6.10;29.80
1413;DHT22;701;52.526;13.408;2022-12-07T09:00:52;6.10;28.90
1413;DHT22;701;52.526;13.408;2022-12-07T09:03:18;6.10;28.40
1413;DHT22;701;52.526;13.408;2022-12-07T09:05:44;6.10;28.40
1413;DHT22;701;52.526;13.408;2022-12-07T09:08:10;6.10;28.20
1413;DHT22;701;52.526;13.408;2022-12-07T09:10:36;6.20;27.70
1413;DHT22;701;52.526;13.408;2022-12-07T09:13:01;6.20;27.40
1413;DHT22;701;52.526;13.408;2022-12-07T09:15:28;6.20;27.30
1413;DHT22;701;52.526;13.408;2022-12-07T09:17:54;6.30;26.50
1413;DHT22;701;52.526;13.408;2022-12-07T09:20:20;6.30;26.00
1413;DHT22;701;52.526;13.408;2022-12-07T09:22:46;6.20;25.80
1413;DHT22;701;52.526;13.408;2022-12-07T09:25:12;6.30;26.00
1413;DHT22;701;52.526;13.408;2022-12-07T09:27:37;6.30;25.70
1413;DHT22;701;52.526;13.408;2022-12-07T09:30:04;6.30;24.30
1413;DHT22;701;52.526;13.408;2022-12-07T09:32:30;6.30;24.70
1413;DHT22;701;52.526;13.408;2022-12-07T09:34:56;6.20;24.80
1413;DHT22;701;52.526;13.408;2022-12-07T09:37:22;6.20;24.70
1413;DHT22;701;52.526;13.408;2022-12-07T09:39:48;6.20;24.70
1413;DHT22;701;52.526;13.408;2022-12-07T09:42:28;6.10;24.70
1413;DHT22;701;52.526;13.408;2022-12-07T09:44:55;6.10;24.90
1413;DHT22;701;52.526;13.408;2022-12-07T09:47:21;6.10;24.90
1413;DHT22;701;52.526;13.408;2022-12-07T09:49:47;6.10;24.70
1413;DHT22;701;52.526;13.408;2022-12-07T09:52:20;6.10;24.90
1413;DHT22;701;52.526;13.408;2022-12-07T09:54:50;6.10;24.80
1413;DHT22;701;52.526;13.408;2022-12-07T09:57:16;6.00;24.60
1413;DHT22;701;52.526;13.408;2022-12-07T09:59:43;6.10;24.80
1413;DHT22;701;52.526;13.408;2022-12-07T10:02:35;6.00;24.40
1413;DHT22;701;52.526;13.408;2022-12-07T10:05:06;6.00;23.50
1413;DHT22;701;52.526;13.408;2022-12-07T10:07:32;5.90;23.70
1413;DHT22;701;52.526;13.408;2022-12-07T10:09:58;5.90;23.90
1413;DHT22;701;52.526;13.408;2022-12-07T10:12:24;5.90;24.20
1413;DHT22;701;52.526;13.408;2022-12-07T10:14:56;5.90;24.40
1413;DHT22;701;52.526;13.408;2022-12-07T10:20:18;5.90;24.10
1413;DHT22;701;52.526;13.408;2022-12-07T10:23:05;5.90;24.70
1413;DHT22;701;52.526;13.408;2022-12-07T10:25:36;5.90;24.20
1413;DHT22;701;52.526;13.408;2022-12-07T10:35:55;6.00;23.70
1413;DHT22;701;52.526;13.408;2022-12-07T10:38:20;6.00;23.60
1413;DHT22;701;52.526;13.408;2022-12-07T10:40:47;5.90;23.60
1413;DHT22;701;52.526;13.408;2022-12-07T10:48:25;5.90;24.90
1413;DHT22;701;52.526;13.408;2022-12-07T11:11:11;6.10;25.20
1413;DHT22;701;52.526;13.408;2022-12-07T11:22:31;6.30;25.40
1413;DHT22;701;52.526;13.408;2022-12-07T11:25:23;6.30;25.40
1413;DHT22;701;52.526;13.408;2022-12-07T11:28:18;6.30;25.40
1413;DHT22;701;52.526;13.408;2022-12-07T11:31:18;6.30;25.60
1413;DHT22;701;52.526;13.408;2022-12-07T11:34:04;6.40;25.50
1413;DHT22;701;52.526;13.408;2022-12-07T11:36:41;6.40;25.20
1413;DHT22;701;52.526;13.408;2022-12-07T11:41:38;6.20;25.10
1413;DHT22;701;52.526;13.408;2022-12-07T11:47:13;6.20;25.60
1413;DHT22;701;52.526;13.408;2022-12-07T11:55:35;6.20;25.90
1413;DHT22;701;52.526;13.408;2022-12-07T11:58:19;6.30;25.90
1413;DHT22;701;52.526;13.408;2022-12-07T12:00:50;6.40;25.50
1413;DHT22;701;52.526;13.408;2022-12-07T12:03:28;6.40;25.50
1413;DHT22;701;52.526;13.408;2022-12-07T12:05:57;6.40;24.90
1413;DHT22;701;52.526;13.408;2022-12-07T12:19:01;6.60;24.90
1413;DHT22;701;52.526;13.408;2022-12-07T12:21:32;6.60;24.90
1413;DHT22;701;52.526;13.408;2022-12-07T12:24:01;6.60;24.90
1413;DHT22;701;52.526;13.408;2022-12-07T12:26:31;6.60;25.10
1413;DHT22;701;52.526;13.408;2022-12-07T12:29:06;6.70;25.10
1413;DHT22;701;52.526;13.408;2022-12-07T12:31:43;6.70;25.00
1413;DHT22;701;52.526;13.408;2022-12-07T12:34:38;6.70;25.00
1413;DHT22;701;52.526;13.408;2022-12-07T12:42:48;6.70;24.90
1413;DHT22;701;52.526;13.408;2022-12-07T12:45:20;6.70;24.70
1413;DHT22;701;52.526;13.408;2022-12-07T12:50:26;6.70;25.10
1413;DHT22;701;52.526;13.408;2022-12-07T13:00:44;6.70;25.00
1413;DHT22;701;52.526;13.408;2022-12-07T13:03:27;6.70;25.00
1413;DHT22;701;52.526;13.408;2022-12-07T13:06:20;6.70;24.80
1413;DHT22;701;52.526;13.408;2022-12-07T13:08:59;6.70;25.10
1413;DHT22;701;52.526;13.408;2022-12-07T13:11:32;6.70;25.30
1413;DHT22;701;52.526;13.408;2022-12-07T13:20:08;6.60;25.50
1413;DHT22;701;52.526;13.408;2022-12-07T13:25:26;6.60;25.60
1413;DHT22;701;52.526;13.408;2022-12-07T13:28:06;6.60;25.70
1413;DHT22;701;52.526;13.408;2022-12-07T13:30:43;6.60;25.70
1413;DHT22;701;52.526;13.408;2022-12-07T13:33:10;6.60;26.00
1413;DHT22;701;52.526;13.408;2022-12-07T13:35:37;6.50;25.80
1413;DHT22;701;52.526;13.408;2022-12-07T13:38:18;6.50;26.10
1413;DHT22;701;52.526;13.408;2022-12-07T13:41:21;6.50;26.10
1413;DHT22;701;52.526;13.408;2022-12-07T13:46:25;6.40;26.00
1413;DHT22;701;52.526;13.408;2022-12-07T13:48:51;6.40;26.10
1413;DHT22;701;52.526;13.408;2022-12-07T13:51:27;6.40;26.30
1413;DHT22;701;52.526;13.408;2022-12-07T13:54:10;6.40;26.60
1413;DHT22;701;52.526;13.408;2022-12-07T13:56:36;6.40;26.60
1413;DHT22;701;52.526;13.408;2022-12-07T13:59:26;6.40;26.60
1413;DHT22;701;52.526;13.408;2022-12-07T14:01:52;6.40;26.70
1413;DHT22;701;52.526;13.408;2022-12-07T14:04:34;6.40;26.70
1413;DHT22;701;52.526;13.408;2022-12-07T14:07:15;6.40;26.70
1413;DHT22;701;52.526;13.408;2022-12-07T14:10:00;6.40;26.80
1413;DHT22;701;52.526;13.408;2022-12-07T14:12:27;6.40;26.40
1413;DHT22;701;52.526;13.408;2022-12-07T14:14:53;6.40;26.50
1413;DHT22;701;52.526;13.408;2022-12-07T14:17:22;6.40;26.40
1413;DHT22;701;52.526;13.408;2022-12-07T14:19:57;6.40;26.40
1413;DHT22;701;52.526;13.408;2022-12-07T14:22:30;6.40;26.30
1413;DHT22;701;52.526;13.408;2022-12-07T14:27:38;6.30;26.10
1413;DHT22;701;52.526;13.408;2022-12-07T14:30:05;6.30;26.40
1413;DHT22;701;52.526;13.408;2022-12-07T14:32:32;6.20;26.50
1413;DHT22;701;52.526;13.408;2022-12-07T14:35:09;6.20;26.60
1413;DHT22;701;52.526;13.408;2022-12-07T14:37:36;6.20;26.70
1413;DHT22;701;52.526;13.408;2022-12-07T14:40:02;6.10;26.80
1413;DHT22;701;52.526;13.408;2022-12-07T14:42:30;6.10;26.90
1413;DHT22;701;52.526;13.408;2022-12-07T14:44:57;6.10;27.10
1413;DHT22;701;52.526;13.408;2022-12-07T14:47:24;6.00;27.40
1413;DHT22;701;52.526;13.408;2022-12-07T14:49:50;5.90;27.50
1413;DHT22;701;52.526;13.408;2022-12-07T14:52:21;5.90;27.80
1413;DHT22;701;52.526;13.408;2022-12-07T14:54:48;5.80;28.00
1413;DHT22;701;52.526;13.408;2022-12-07T14:57:14;5.70;28.30
1413;DHT22;701;52.526;13.408;2022-12-07T14:59:40;5.70;28.40
1413;DHT22;701;52.526;13.408;2022-12-07T15:02:06;5.60;28.60
1413;DHT22;701;52.526;13.408;2022-12-07T15:04:32;5.50;29.00
1413;DHT22;701;52.526;13.408;2022-12-07T15:07:01;5.50;29.00
1413;DHT22;701;52.526;13.408;2022-12-07T15:09:27;5.40;28.90
1413;DHT22;701;52.526;13.408;2022-12-07T15:11:53;5.30;28.90
1413;DHT22;701;52.526;13.408;2022-12-07T15:14:18;5.30;29.10
1413;DHT22;701;52.526;13.408;2022-12-07T15:16:44;5.20;29.40
1413;DHT22;701;52.526;13.408;2022-12-07T15:19:15;5.10;29.90
1413;DHT22;701;52.526;13.408;2022-12-07T15:21:42;5.00;30.00
1413;DHT22;701;52.526;13.408;2022-12-07T15:24:10;4.90;30.20
1413;DHT22;701;52.526;13.408;2022-12-07T15:26:36;4.90;30.50
1413;DHT22;701;52.526;13.408;2022-12-07T15:29:02;4.70;30.40
1413;DHT22;701;52.526;13.408;2022-12-07T15:31:28;4.70;30.70
1413;DHT22;701;52.526;13.408;2022-12-07T15:33:54;4.70;31.00
1413;DHT22;701;52.526;13.408;2022-12-07T15:36:22;4.60;31.00
1413;DHT22;701;52.526;13.408;2022-12-07T15:38:49;4.60;31.10
1413;DHT22;701;52.526;13.408;2022-12-07T15:41:15;4.50;31.20
1413;DHT22;701;52.526;13.408;2022-12-07T15:43:41;4.60;31.60
1413;DHT22;701;52.526;13.408;2022-12-07T15:46:32;4.60;31.60
1413;DHT22;701;52.526;13.408;2022-12-07T15:48:58;4.60;31.50
1413;DHT22;701;52.526;13.408;2022-12-07T15:51:24;4.70;31.70
1413;DHT22;701;52.526;13.408;2022-12-07T15:53:50;4.70;31.80
1413;DHT22;701;52.526;13.408;2022-12-07T15:56:16;4.80;31.60
1413;DHT22;701;52.526;13.408;2022-12-07T15:58:42;4.80;31.50
1413;DHT22;701;52.526;13.408;2022-12-07T16:01:13;4.90;31.50
1413;DHT22;701;52.526;13.408;2022-12-07T16:03:39;4.90;31.30
1413;DHT22;701;52.526;13.408;2022-12-07T16:06:05;4.90;31.20
1413;DHT22;701;52.526;13.408;2022-12-07T16:08:31;4.90;31.20
1413;DHT22;701;52.526;13.408;2022-12-07T16:10:57;5.00;31.40
1413;DHT22;701;52.526;13.408;2022-12-07T16:13:22;4.90;31.30
1413;DHT22;701;52.526;13.408;2022-12-07T16:15:48;5.00;31.40
1413;DHT22;701;52.526;13.408;2022-12-07T16:18:14;4.90;31.20
1413;DHT22;701;52.526;13.408;2022-12-07T16:20:40;4.90;30.90
1413;DHT22;701;52.526;13.408;2022-12-07T16:23:06;4.90;30.90
1413;DHT22;701;52.526;13.408;2022-12-07T16:25:33;4.80;31.00
1413;DHT22;701;52.526;13.408;2022-12-07T16:27:58;4.80;31.00
1413;DHT22;701;52.526;13.408;2022-12-07T16:30:24;4.70;31.10
1413;DHT22;701;52.526;13.408;2022-12-07T16:32:51;4.70;31.30
1413;DHT22;701;52.526;13.408;2022-12-07T16:35:17;4.60;31.30
1413;DHT22;701;52.526;13.408;2022-12-07T16:37:42;4.60;31.60
1413;DHT22;701;52.526;13.408;2022-12-07T16:40:09;4.50;31.80
1413;DHT22;701;52.526;13.408;2022-12-07T16:42:35;4.50;32.10
1413;DHT22;701;52.526;13.408;2022-12-07T16:45:02;4.50;32.20
1413;DHT22;701;52.526;13.408;2022-12-07T16:47:28;4.40;32.10
1413;DHT22;701;52.526;13.408;2022-12-07T16:49:54;4.40;32.30
1413;DHT22;701;52.526;13.408;2022-12-07T16:52:20;4.30;32.50
1413;DHT22;701;52.526;13.408;2022-12-07T16:54:48;4.20;32.70
1413;DHT22;701;52.526;13.408;2022-12-07T16:57:14;4.20;32.70
1413;DHT22;701;52.526;13.408;2022-12-07T16:59:40;4.10;32.60
1413;DHT22;701;52.526;13.408;2022-12-07T17:02:06;4.10;32.90
1413;DHT22;701;52.526;13.408;2022-12-07T17:04:33;4.00;33.20
1413;DHT22;701;52.526;13.408;2022-12-07T17:06:59;4.00;33.30
1413;DHT22;701;52.526;13.408;2022-12-07T17:09:25;4.00;33.30
1413;DHT22;701;52.526;13.408;2022-12-07T17:11:51;3.90;33.40
1413;DHT22;701;52.526;13.408;2022-12-07T17:14:17;3.90;33.60
1413;DHT22;701;52.526;13.408;2022-12-07T17:17:01;3.80;33.70
1413;DHT22;701;52.526;13.408;2022-12-07T17:19:27;3.80;33.90
1413;DHT22;701;52.526;13.408;2022-12-07T17:21:53;3.70;33.80
1413;DHT22;701;52.526;13.408;2022-12-07T17:24:18;3.70;33.80
1413;DHT22;701;52.526;13.408;2022-12-07T17:26:45;3.70;33.90
1413;DHT22;701;52.526;13.408;2022-12-07T17:29:13;3.70;34.00
1413;DHT22;701;52.526;13.408;2022-12-07T17:31:40;3.60;34.10
1413;DHT22;701;52.526;13.408;2022-12-07T17:34:13;3.60;34.10
1413;DHT22;701;52.526;13.408;2022-12-07T17:36:41;3.60;34.70
1413;DHT22;701;52.526;13.408;2022-12-07T17:39:10;3.50;34.20
1413;DHT22;701;52.526;13.408;2022-12-07T17:41:37;3.60;34.10
1413;DHT22;701;52.526;13.408;2022-12-07T17:44:22;3.50;34.40
1413;DHT22;701;52.526;13.408;2022-12-07T17:46:50;3.50;34.60
1413;DHT22;701;52.526;13.408;2022-12-07T17:49:20;3.40;34.70
1413;DHT22;701;52.526;13.408;2022-12-07T17:51:46;3.40;35.00
1413;DHT22;701;52.526;13.408;2022-12-07T17:54:30;3.40;35.10
1413;DHT22;701;52.526;13.408;2022-12-07T17:56:56;3.40;35.10
1413;DHT22;701;52.526;13.408;2022-12-07T17:59:22;3.40;35.60
1413;DHT22;701;52.526;13.408;2022-12-07T18:01:48;3.40;35.40
1413;DHT22;701;52.526;13.408;2022-12-07T18:04:14;3.40;35.60
1413;DHT22;701;52.526;13.408;2022-12-07T18:06:40;3.30;35.60
1413;DHT22;701;52.526;13.408;2022-12-07T18:09:06;3.30;35.60
1413;DHT22;701;52.526;13.408;2022-12-07T18:11:32;3.30;35.60
1413;DHT22;701;52.526;13.408;2022-12-07T18:13:58;3.20;35.50
1413;DHT22;701;52.526;13.408;2022-12-07T18:16:26;3.20;35.50
1413;DHT22;701;52.526;13.408;2022-12-07T18:18:53;3.20;35.50
1413;DHT22;701;52.526;13.408;2022-12-07T18:21:22;3.20;35.60
1413;DHT22;701;52.526;13.408;2022-12-07T18:23:50;3.20;35.60
1413;DHT22;701;52.526;13.408;2022-12-07T18:26:19;3.20;36.10
1413;DHT22;701;52.526;13.408;2022-12-07T18:28:45;3.10;35.80
1413;DHT22;701;52.526;13.408;2022-12-07T18:31:12;3.10;36.30
1413;DHT22;701;52.526;13.408;2022-12-07T18:33:39;3.10;36.30
1413;DHT22;701;52.526;13.408;2022-12-07T18:36:05;3.10;36.60
1413;DHT22;701;52.526;13.408;2022-12-07T18:38:32;3.00;36.50
1413;DHT22;701;52.526;13.408;2022-12-07T18:40:58;3.00;36.40
1413;DHT22;701;52.526;13.408;2022-12-07T18:43:23;3.00;36.70
1413;DHT22;701;52.526;13.408;2022-12-07T18:45:50;3.00;36.80